createdAt,value
2022-11-19T00:01:27.714Z,12.57
2022-11-19T00:03:56.215Z,12.18
2022-11-19T00:06:27.073Z,11.32
2022-11-19T00:08:55.502Z,10.68
2022-11-19T00:11:45.446Z,10.68
2022-11-19T00:14:15.906Z,10.90
2022-11-19T00:16:45.535Z,10.03
2022-11-19T00:19:13.650Z,11.27
2022-11-19T00:21:40.900Z,10.18
2022-11-19T00:24:09.331Z,10.65
2022-11-19T00:26:36.593Z,11.65
2022-11-19T00:29:04.572Z,11.23
2022-11-19T00:31:32.452Z,11.67
2022-11-19T00:33:59.982Z,12.07
2022-11-19T00:36:27.112Z,12.45
2022-11-19T00:38:55.209Z,10.43
2022-11-19T00:41:23.363Z,10.55
2022-11-19T00:43:51.031Z,9.82
2022-11-19T00:46:26.336Z,11.30
2022-11-19T00:48:56.949Z,12.25
2022-11-19T00:51:28.652Z,12.88
2022-11-19T00:53:56.655Z,12.45
2022-11-19T00:56:27.245Z,12.88
2022-11-19T00:58:55.645Z,11.65
2022-11-19T01:01:25.682Z,11.95
2022-11-19T01:03:54.031Z,12.05
2022-11-19T01:06:24.818Z,11.27
2022-11-19T01:08:53.897Z,11.77
2022-11-19T01:11:25.774Z,10.73
2022-11-19T01:13:54.016Z,11.55
2022-11-19T01:16:29.613Z,11.80
2022-11-19T01:18:58.315Z,10.65
2022-11-19T01:21:32.929Z,10.23
2022-11-19T01:24:02.419Z,11.13
2022-11-19T01:26:30.441Z,11.97
2022-11-19T01:28:58.403Z,11.75
2022-11-19T01:31:29.502Z,11.80
2022-11-19T01:33:57.377Z,12.90
2022-11-19T01:36:28.703Z,11.13
2022-11-19T01:38:57.903Z,13.20
2022-11-19T01:41:32.650Z,11.20
2022-11-19T01:44:05.306Z,12.32
2022-11-19T01:46:36.535Z,13.15
2022-11-19T01:49:20.468Z,12.55
2022-11-19T01:51:58.554Z,12.88
2022-11-19T01:54:39.476Z,14.13
2022-11-19T01:57:14.564Z,14.30
2022-11-19T01:59:45.100Z,12.13
2022-11-19T02:02:12.946Z,13.05
2022-11-19T02:04:41.052Z,13.77
2022-11-19T02:07:09.977Z,13.35
2022-11-19T02:09:39.536Z,13.40
2022-11-19T02:12:33.824Z,12.57
2022-11-19T02:15:30.805Z,13.15
2022-11-19T02:18:34.691Z,12.70
2022-11-19T02:21:21.810Z,11.50
2022-11-19T02:24:18.306Z,14.00
2022-11-19T02:27:15.289Z,13.40
2022-11-19T02:30:00.699Z,12.18
2022-11-19T02:33:00.108Z,11.57
2022-11-19T02:36:23.784Z,12.27
2022-11-19T02:39:17.785Z,11.63
2022-11-19T02:42:10.866Z,13.20
2022-11-19T02:45:00.825Z,14.20
2022-11-19T02:47:30.947Z,12.15
2022-11-19T02:50:09.741Z,14.65
2022-11-19T02:52:39.491Z,14.18
2022-11-19T02:55:07.737Z,12.75
2022-11-19T02:57:36.671Z,15.33
2022-11-19T03:00:25.906Z,12.57
2022-11-19T03:03:40.125Z,14.05
2022-11-19T03:06:20.519Z,15.47
2022-11-19T03:08:48.057Z,12.55
2022-11-19T03:11:24.517Z,12.23
2022-11-19T03:14:19.264Z,15.38
2022-11-19T03:17:04.858Z,14.27
2022-11-19T03:19:44.235Z,14.63
2022-11-19T03:22:23.192Z,14.90
2022-11-19T03:25:00.942Z,14.63
2022-11-19T03:27:48.122Z,15.05
2022-11-19T03:30:20.009Z,14.18
2022-11-19T03:33:31.869Z,14.77
2022-11-19T03:36:06.855Z,14.70
2022-11-19T03:38:49.116Z,14.98
2022-11-19T03:41:20.642Z,14.27
2022-11-19T03:43:58.283Z,14.25
2022-11-19T03:46:29.403Z,16.27
2022-11-19T03:49:00.341Z,15.23
2022-11-19T03:51:44.227Z,15.45
2022-11-19T03:54:12.039Z,15.60
2022-11-19T03:56:41.779Z,13.85
2022-11-19T03:59:12.859Z,16.67
2022-11-19T04:01:40.696Z,14.90
2022-11-19T04:04:26.827Z,16.25
2022-11-19T04:06:54.556Z,14.75
2022-11-19T04:09:22.240Z,16.77
2022-11-19T04:14:16.067Z,16.92
2022-11-19T04:16:43.289Z,19.05
2022-11-19T04:19:10.891Z,17.73
2022-11-19T04:21:38.073Z,15.93
2022-11-19T04:24:06.166Z,18.10
2022-11-19T04:26:33.333Z,16.10
2022-11-19T04:29:00.987Z,16.58
2022-11-19T04:31:28.254Z,15.50
2022-11-19T04:33:55.714Z,15.75
2022-11-19T04:36:22.987Z,15.10
2022-11-19T04:38:50.407Z,14.98
2022-11-19T04:41:17.563Z,14.85
2022-11-19T04:43:45.049Z,16.15
2022-11-19T04:46:12.271Z,14.73
2022-11-19T04:48:39.755Z,15.32
2022-11-19T04:51:06.924Z,16.53
2022-11-19T04:53:34.387Z,15.38
2022-11-19T04:56:01.583Z,15.23
2022-11-19T04:58:29.042Z,16.15
2022-11-19T05:00:56.197Z,17.13
2022-11-19T05:03:23.655Z,14.23
2022-11-19T05:05:50.949Z,16.42
2022-11-19T05:08:18.377Z,16.52
2022-11-19T05:10:45.635Z,17.97
2022-11-19T05:13:13.315Z,20.63
2022-11-19T05:15:40.773Z,20.98
2022-11-19T05:18:08.445Z,19.02
2022-11-19T05:20:35.748Z,18.25
2022-11-19T05:23:03.343Z,18.67
2022-11-19T05:25:30.715Z,19.67
2022-11-19T05:27:58.177Z,18.35
2022-11-19T05:30:25.386Z,16.60
2022-11-19T05:32:53.076Z,19.55
2022-11-19T05:35:20.283Z,20.15
2022-11-19T05:37:51.759Z,19.40
2022-11-19T05:40:19.139Z,18.93
2022-11-19T05:42:46.641Z,19.65
2022-11-19T05:45:13.932Z,18.45
2022-11-19T05:47:45.927Z,20.25
2022-11-19T05:50:15.639Z,23.40
2022-11-19T05:52:43.065Z,25.20
2022-11-19T05:55:10.273Z,24.83
2022-11-19T05:57:37.731Z,25.90
2022-11-19T06:00:06.098Z,19.48
2022-11-19T06:02:33.631Z,20.35
2022-11-19T06:05:00.967Z,19.33
2022-11-19T06:07:28.554Z,21.40
2022-11-19T06:09:55.733Z,19.25
2022-11-19T06:12:28.269Z,17.33
2022-11-19T06:15:02.177Z,18.23
2022-11-19T06:17:29.895Z,18.75
2022-11-19T06:19:57.317Z,19.80
2022-11-19T06:22:24.793Z,20.30
2022-11-19T06:24:51.944Z,20.23
2022-11-19T06:27:19.465Z,20.30
2022-11-19T06:29:46.727Z,20.63
2022-11-19T06:32:14.214Z,21.40
2022-11-19T06:34:41.387Z,23.45
2022-11-19T06:37:08.877Z,23.67
2022-11-19T06:39:36.109Z,23.07
2022-11-19T06:42:22.330Z,20.23
2022-11-19T06:44:49.562Z,19.67
2022-11-19T06:47:17.081Z,20.15
2022-11-19T06:49:44.373Z,21.60
2022-11-19T06:52:11.893Z,22.50
2022-11-19T06:54:42.930Z,20.63
2022-11-19T06:57:10.762Z,27.02
2022-11-19T06:59:39.130Z,21.10
2022-11-19T07:02:08.484Z,21.33
2022-11-19T07:04:35.774Z,21.20
2022-11-19T07:07:03.746Z,20.10
2022-11-19T07:09:31.126Z,24.10
2022-11-19T07:11:58.649Z,25.43
2022-11-19T07:14:25.879Z,22.98
2022-11-19T07:16:53.419Z,21.50
2022-11-19T07:19:21.026Z,22.23
2022-11-19T07:21:48.688Z,21.07
2022-11-19T07:24:17.945Z,23.55
2022-11-19T07:26:45.769Z,24.58
2022-11-19T07:29:15.324Z,23.27
2022-11-19T07:31:42.978Z,25.30
2022-11-19T07:34:11.290Z,22.95
2022-11-19T07:36:38.804Z,22.30
2022-11-19T07:39:06.403Z,22.30
2022-11-19T07:41:52.783Z,24.48
2022-11-19T07:44:20.150Z,22.67
2022-11-19T07:46:47.646Z,24.63
2022-11-19T07:49:15.081Z,28.55
2022-11-19T07:51:42.754Z,26.08
2022-11-19T07:54:12.732Z,28.65
2022-11-19T07:56:40.921Z,25.95
2022-11-19T07:59:08.221Z,25.40
2022-11-19T08:01:36.182Z,26.33
2022-11-19T08:04:05.348Z,28.30
2022-11-19T08:06:34.808Z,23.88
2022-11-19T08:09:04.332Z,24.33
2022-11-19T08:11:32.304Z,25.98
2022-11-19T08:14:02.938Z,24.17
2022-11-19T08:16:52.013Z,22.60
2022-11-19T08:19:24.370Z,24.20
2022-11-19T08:21:52.039Z,24.85
2022-11-19T08:24:21.064Z,23.67
2022-11-19T08:26:49.346Z,25.57
2022-11-19T08:29:20.447Z,24.88
2022-11-19T08:31:48.784Z,24.30
2022-11-19T08:34:17.812Z,24.50
2022-11-19T08:36:45.736Z,24.42
2022-11-19T08:39:13.003Z,23.80
2022-11-19T08:41:59.078Z,21.42
2022-11-19T08:44:26.472Z,21.27
2022-11-19T08:46:54.087Z,21.17
2022-11-19T08:49:21.685Z,20.85
2022-11-19T08:51:49.207Z,20.70
2022-11-19T08:54:17.081Z,18.80
2022-11-19T08:56:45.327Z,19.42
2022-11-19T08:59:12.671Z,18.35
2022-11-19T09:01:40.386Z,18.40
2022-11-19T09:04:07.657Z,16.75
2022-11-19T09:06:35.413Z,20.43
2022-11-19T09:09:04.461Z,19.92
2022-11-19T09:11:32.219Z,19.33
2022-11-19T09:14:00.027Z,19.73
2022-11-19T09:16:27.989Z,19.73
2022-11-19T09:18:55.346Z,16.60
2022-11-19T09:21:23.061Z,15.82
2022-11-19T09:23:50.313Z,16.50
2022-11-19T09:26:19.336Z,15.55
2022-11-19T09:28:47.096Z,19.55
2022-11-19T09:31:18.449Z,16.40
2022-11-19T09:33:49.797Z,15.70
2022-11-19T09:36:19.573Z,16.85
2022-11-19T09:38:48.176Z,17.15
2022-11-19T09:41:21.021Z,17.00
2022-11-19T09:44:13.139Z,18.55
2022-11-19T09:47:00.054Z,17.70
2022-11-19T09:49:51.241Z,19.20
2022-11-19T09:52:25.142Z,17.50
2022-11-19T09:54:56.784Z,17.98
2022-11-19T09:57:50.649Z,17.38
2022-11-19T10:00:23.393Z,16.90
2022-11-19T10:02:51.645Z,19.85
2022-11-19T10:05:30.168Z,15.80
2022-11-19T10:08:28.268Z,17.30
2022-11-19T10:11:27.139Z,15.77
2022-11-19T10:14:44.777Z,18.13
2022-11-19T10:17:59.306Z,16.63
2022-11-19T10:21:11.447Z,16.13
2022-11-19T10:24:18.057Z,16.77
2022-11-19T10:27:09.969Z,17.70
2022-11-19T10:29:40.468Z,18.38
2022-11-19T10:32:41.388Z,19.02
2022-11-19T10:35:18.570Z,18.65
2022-11-19T10:38:01.358Z,18.17
2022-11-19T10:40:40.504Z,16.73
2022-11-19T10:43:46.474Z,15.68
2022-11-19T10:46:19.463Z,15.93
2022-11-19T10:48:51.913Z,16.80
2022-11-19T10:51:24.839Z,17.50
2022-11-19T10:53:55.744Z,18.08
2022-11-19T10:56:54.215Z,18.27
2022-11-19T10:59:27.787Z,16.95
2022-11-19T11:02:09.077Z,14.93
2022-11-19T11:05:11.723Z,16.00
2022-11-19T11:07:55.547Z,18.27
2022-11-19T11:10:39.040Z,17.05
2022-11-19T11:14:15.060Z,17.15
2022-11-19T11:16:48.158Z,16.90
2022-11-19T11:19:20.015Z,18.75
2022-11-19T11:21:54.724Z,12.95
2022-11-19T11:24:31.754Z,13.68
2022-11-19T11:27:19.500Z,17.23
2022-11-19T11:29:46.791Z,18.83
2022-11-19T11:32:33.555Z,20.10
2022-11-19T11:35:05.252Z,21.15
2022-11-19T11:37:35.446Z,18.42
2022-11-19T11:40:02.844Z,20.13
2022-11-19T11:42:31.160Z,20.17
2022-11-19T11:45:01.193Z,16.88
2022-11-19T11:47:39.786Z,14.38
2022-11-19T11:50:23.103Z,14.43
2022-11-19T11:52:54.622Z,14.02
2022-11-19T11:55:24.443Z,15.05
2022-11-19T11:58:23.440Z,15.13
2022-11-19T12:00:56.162Z,15.10
2022-11-19T12:03:23.939Z,13.90
2022-11-19T12:05:58.755Z,15.07
2022-11-19T12:09:08.717Z,14.85
2022-11-19T12:11:55.238Z,14.98
2022-11-19T12:14:39.352Z,14.02
2022-11-19T12:17:19.879Z,13.90
2022-11-19T12:20:19.220Z,15.38
2022-11-19T12:23:32.739Z,15.93
2022-11-19T12:26:37.527Z,12.43
2022-11-19T12:29:54.116Z,13.82
2022-11-19T12:32:45.173Z,12.82
2022-11-19T12:35:44.350Z,12.95
2022-11-19T12:39:03.388Z,12.98
2022-11-19T12:42:03.669Z,11.90
2022-11-19T12:45:11.390Z,14.32
2022-11-19T12:48:08.880Z,13.57
2022-11-19T12:50:42.001Z,13.48
2022-11-19T12:53:50.900Z,14.05
2022-11-19T12:56:39.157Z,14.65
2022-11-19T13:00:11.828Z,16.80
2022-11-19T13:03:04.176Z,16.75
2022-11-19T13:05:55.848Z,16.92
2022-11-19T13:08:48.216Z,16.58
2022-11-19T13:11:43.280Z,16.35
2022-11-19T13:14:31.118Z,15.55
2022-11-19T13:17:01.304Z,14.77
2022-11-19T13:19:38.258Z,15.57
2022-11-19T13:22:22.284Z,14.32
2022-11-19T13:25:00.591Z,15.25
2022-11-19T13:27:31.053Z,15.00
2022-11-19T13:30:14.474Z,12.70
2022-11-19T13:33:23.121Z,12.70
2022-11-19T13:36:03.704Z,12.65
2022-11-19T13:38:55.080Z,15.35
2022-11-19T13:41:33.778Z,15.20
2022-11-19T13:44:19.852Z,14.40
2022-11-19T13:46:58.547Z,14.88
2022-11-19T13:50:05.185Z,14.00
2022-11-19T13:53:02.857Z,15.07
2022-11-19T13:55:35.294Z,16.42
2022-11-19T13:58:39.963Z,20.58
2022-11-19T14:01:43.655Z,20.48
2022-11-19T14:04:59.567Z,21.05
2022-11-19T14:07:51.165Z,20.42
2022-11-19T14:10:45.012Z,21.52
2022-11-19T14:13:35.006Z,20.27
2022-11-19T14:16:38.074Z,17.77
2022-11-19T14:19:32.763Z,18.15
2022-11-19T14:22:40.503Z,16.60
2022-11-19T14:25:28.043Z,17.67
2022-11-19T14:27:55.626Z,19.10
2022-11-19T14:31:04.468Z,16.70
2022-11-19T14:34:04.252Z,17.98
2022-11-19T14:36:47.627Z,19.83
2022-11-19T14:39:31.790Z,25.93
2022-11-19T14:42:22.243Z,25.25
2022-11-19T14:45:03.012Z,23.48
2022-11-19T14:47:36.443Z,19.20
2022-11-19T14:50:31.657Z,21.55
2022-11-19T14:53:02.187Z,25.10
2022-11-19T14:55:34.246Z,24.77
2022-11-19T14:58:24.334Z,21.85
2022-11-19T15:01:08.755Z,22.08
2022-11-19T15:03:37.840Z,20.83
2022-11-19T15:06:08.365Z,17.27
2022-11-19T15:08:54.254Z,21.92
2022-11-19T15:11:21.874Z,25.40
2022-11-19T15:15:03.773Z,23.80
2022-11-19T15:17:33.378Z,19.95
2022-11-19T15:20:20.966Z,20.27
2022-11-19T15:23:06.451Z,17.52
2022-11-19T15:25:51.504Z,16.33
2022-11-19T15:28:41.668Z,19.23
2022-11-19T15:31:25.240Z,18.90
2022-11-19T15:34:21.531Z,25.92
2022-11-19T15:36:56.195Z,21.25
2022-11-19T15:39:44.440Z,27.13
2022-11-19T15:42:20.661Z,26.10
2022-11-19T15:45:01.994Z,23.27
2022-11-19T15:47:44.535Z,29.00
2022-11-19T15:50:21.198Z,24.10
2022-11-19T15:53:13.607Z,20.83
2022-11-19T15:55:52.173Z,22.00
2022-11-19T15:58:26.166Z,20.20
2022-11-19T16:00:55.855Z,21.37
2022-11-19T16:03:23.767Z,22.40
2022-11-19T16:06:16.064Z,22.85
2022-11-19T16:08:52.958Z,19.73
2022-11-19T16:11:43.864Z,18.00
2022-11-19T16:14:46.251Z,17.47
2022-11-19T16:17:39.866Z,18.70
2022-11-19T16:20:17.921Z,19.50
2022-11-19T16:23:21.318Z,19.27
2022-11-19T16:25:49.941Z,16.27
2022-11-19T16:28:34.008Z,18.17
2022-11-19T16:31:05.325Z,17.33
2022-11-19T16:33:34.687Z,16.20
2022-11-19T16:36:20.431Z,19.17
2022-11-19T16:38:53.666Z,20.17
2022-11-19T16:41:43.211Z,19.43
2022-11-19T16:44:18.143Z,19.20
2022-11-19T16:46:46.428Z,20.67
2022-11-19T16:49:57.599Z,20.50
2022-11-19T16:52:38.591Z,19.43
2022-11-19T16:55:18.041Z,20.37
2022-11-19T16:57:56.112Z,20.07
2022-11-19T17:00:34.679Z,22.17
2022-11-19T17:03:34.494Z,22.43
2022-11-19T17:06:04.595Z,24.63
2022-11-19T17:08:38.288Z,25.27
2022-11-19T17:11:43.032Z,26.13
2022-11-19T17:14:20.824Z,26.93
2022-11-19T17:16:52.279Z,27.07
2022-11-19T17:19:36.792Z,26.43
2022-11-19T17:22:17.784Z,26.97
2022-11-19T17:24:46.620Z,23.60
2022-11-19T17:27:29.343Z,23.43
2022-11-19T17:30:19.068Z,24.03
2022-11-19T17:32:57.924Z,23.47
2022-11-19T17:35:47.307Z,21.00
2022-11-19T17:38:27.978Z,21.37
2022-11-19T17:41:05.178Z,18.80
2022-11-19T17:43:58.958Z,19.37
2022-11-19T17:46:29.554Z,20.33
2022-11-19T17:48:57.394Z,20.60
2022-11-19T17:51:26.716Z,19.40
2022-11-19T17:53:56.623Z,20.13
2022-11-19T17:56:30.955Z,17.13
2022-11-19T17:58:59.773Z,18.40
2022-11-19T18:01:27.571Z,20.47
2022-11-19T18:03:55.133Z,18.53
2022-11-19T18:06:22.350Z,18.40
2022-11-19T18:08:49.900Z,20.73
2022-11-19T18:11:26.110Z,21.43
2022-11-19T18:13:57.563Z,20.27
2022-11-19T18:16:28.752Z,20.83
2022-11-19T18:18:56.346Z,22.17
2022-11-19T18:21:24.084Z,22.07
2022-11-19T18:23:52.212Z,21.13
2022-11-19T18:26:22.945Z,22.30
2022-11-19T18:28:50.898Z,23.97
2022-11-19T18:31:26.293Z,22.70
2022-11-19T18:33:56.791Z,22.20
2022-11-19T18:36:25.395Z,20.77
2022-11-19T18:38:54.905Z,23.80
2022-11-19T18:41:22.617Z,22.67
2022-11-19T18:44:08.710Z,24.53
2022-11-19T18:46:35.961Z,28.50
2022-11-19T18:49:04.514Z,27.77
2022-11-19T18:51:32.627Z,25.40
2022-11-19T18:54:00.451Z,26.40
2022-11-19T18:56:27.737Z,28.87
2022-11-19T18:58:57.211Z,26.67
2022-11-19T19:01:27.713Z,26.83
2022-11-19T19:03:55.186Z,26.97
2022-11-19T19:06:23.403Z,27.63
2022-11-19T19:08:51.599Z,27.50
2022-11-19T19:11:37.348Z,28.60
2022-11-19T19:14:05.065Z,27.10
2022-11-19T19:16:32.603Z,27.93
2022-11-19T19:19:02.218Z,28.97
2022-11-19T19:21:30.213Z,28.60
2022-11-19T19:23:57.820Z,30.47
2022-11-19T19:26:25.039Z,27.27
2022-11-19T19:28:54.958Z,29.77
2022-11-19T19:31:24.346Z,29.17
2022-11-19T19:33:52.816Z,26.53
2022-11-19T19:36:21.993Z,25.13
2022-11-19T19:38:49.987Z,27.93
2022-11-19T19:41:26.730Z,28.60
2022-11-19T19:43:59.609Z,27.10
2022-11-19T19:46:27.275Z,27.23
2022-11-19T19:48:56.468Z,25.50
2022-11-19T19:51:27.613Z,23.03
2022-11-19T19:53:56.206Z,24.40
2022-11-19T19:56:27.937Z,23.60
2022-11-19T19:58:57.640Z,22.73
2022-11-19T20:01:29.173Z,24.60
2022-11-19T20:04:11.766Z,22.97
2022-11-19T20:06:45.191Z,22.60
2022-11-19T20:09:13.348Z,28.83
2022-11-19T20:11:40.870Z,26.53
2022-11-19T20:14:09.553Z,26.40
2022-11-19T20:16:40.855Z,31.90
2022-11-19T20:19:14.613Z,25.63
2022-11-19T20:21:42.159Z,25.57
2022-11-19T20:24:13.609Z,29.07
2022-11-19T20:26:42.829Z,28.50
2022-11-19T20:29:14.228Z,30.33
2022-11-19T20:31:47.480Z,33.07
2022-11-19T20:34:17.064Z,30.50
2022-11-19T20:36:45.007Z,31.17
2022-11-19T20:39:13.109Z,31.97
2022-11-19T20:41:59.166Z,30.23
2022-11-19T20:44:26.823Z,32.53
2022-11-19T20:47:02.247Z,31.07
2022-11-19T20:49:36.485Z,32.77
2022-11-19T20:52:03.938Z,30.43
2022-11-19T20:54:32.508Z,39.57
2022-11-19T20:57:00.760Z,39.20
2022-11-19T20:59:28.929Z,54.20
2022-11-19T21:01:57.664Z,45.07
2022-11-19T21:04:28.634Z,38.03
2022-11-19T21:06:56.267Z,34.00
2022-11-19T21:09:24.393Z,34.37
2022-11-19T21:11:52.139Z,34.40
2022-11-19T21:14:20.276Z,32.27
2022-11-19T21:16:47.936Z,33.90
2022-11-19T21:19:16.433Z,33.47
2022-11-19T21:21:45.648Z,34.83
2022-11-19T21:24:13.708Z,31.43
2022-11-19T21:26:41.651Z,32.60
2022-11-19T21:29:09.420Z,36.47
2022-11-19T21:31:46.561Z,36.37
2022-11-19T21:34:20.783Z,35.47
2022-11-19T21:36:49.758Z,36.00
2022-11-19T21:39:20.116Z,36.83
2022-11-19T21:41:48.006Z,35.37
2022-11-19T21:44:21.068Z,37.70
2022-11-19T21:46:49.288Z,33.60
2022-11-19T21:49:16.866Z,34.53
2022-11-19T21:51:44.607Z,35.93
2022-11-19T21:54:12.176Z,36.60
2022-11-19T21:56:39.472Z,42.77
2022-11-19T21:59:07.695Z,38.53
2022-11-19T22:01:35.438Z,36.43
2022-11-19T22:04:03.428Z,32.73
2022-11-19T22:06:32.565Z,35.53
2022-11-19T22:09:00.283Z,33.07
2022-11-19T22:11:30.775Z,33.37
2022-11-19T22:14:06.618Z,32.80
2022-11-19T22:16:40.153Z,34.33
2022-11-19T22:19:10.107Z,40.80
2022-11-19T22:21:37.666Z,38.30
2022-11-19T22:24:06.399Z,42.50
2022-11-19T22:26:33.703Z,37.30
2022-11-19T22:29:01.325Z,41.53
2022-11-19T22:31:28.525Z,41.73
2022-11-19T22:33:56.444Z,40.20
2022-11-19T22:36:23.984Z,43.47
2022-11-19T22:38:52.584Z,42.67
2022-11-19T22:41:22.185Z,39.20
2022-11-19T22:43:50.850Z,40.90
2022-11-19T22:46:19.786Z,36.63
2022-11-19T22:48:47.936Z,41.30
2022-11-19T22:51:20.142Z,37.67
2022-11-19T22:53:52.927Z,36.70
2022-11-19T22:56:24.032Z,45.47
2022-11-19T22:58:52.895Z,42.03
2022-11-19T23:01:24.570Z,45.83
2022-11-19T23:03:53.678Z,43.57
2022-11-19T23:06:22.873Z,38.70
2022-11-19T23:08:51.710Z,39.37
2022-11-19T23:11:40.478Z,44.23
2022-11-19T23:14:11.800Z,43.60
2022-11-19T23:16:40.780Z,43.20
2022-11-19T23:19:10.087Z,44.03
2022-11-19T23:21:37.722Z,47.13
2022-11-19T23:24:06.493Z,44.57
2022-11-19T23:26:34.384Z,41.00
2022-11-19T23:29:02.041Z,40.47
2022-11-19T23:31:33.153Z,43.13
2022-11-19T23:34:00.899Z,39.07
2022-11-19T23:36:35.570Z,41.53
2022-11-19T23:39:05.267Z,42.67
2022-11-19T23:41:34.567Z,44.43
2022-11-19T23:44:02.821Z,45.47
2022-11-19T23:46:33.700Z,43.40
2022-11-19T23:49:03.300Z,45.57
2022-11-19T23:51:34.488Z,43.53
2022-11-19T23:54:03.268Z,41.57
2022-11-19T23:56:35.982Z,42.70
2022-11-19T23:59:05.796Z,46.90
